Time;durP1;ratioP1;P1;durP2;ratioP2;P2;SDS_P1;SDS_P2;PMS_P1;PMS_P2;Temp;Humidity;BMP_temperature;BMP_pressure;BME280_temperature;BME280_humidity;BME280_pressure;Samples;Min_cycle;Max_cycle;Signal;HPM_P1;HPM_P2
2022/06/24 00:01:54;;;;;;;4.32;3.67;;;24.30;99.90;;;;;;5066286;28;20270;-84
2022/06/24 00:04:30;;;;;;;5.43;3.72;;;24.30;99.90;;;;;;5057124;28;20167;-84
2022/06/24 00:06:57;;;;;;;4.55;3.55;;;24.20;99.90;;;;;;5060640;28;20194;-85
2022/06/24 00:09:26;;;;;;;4.63;3.58;;;24.20;99.90;;;;;;5041971;28;20229;-84
2022/06/24 00:12:10;;;;;;;4.35;3.63;;;24.10;99.90;;;;;;5057057;28;20536;-84
2022/06/24 00:14:38;;;;;;;4.43;3.72;;;24.10;99.90;;;;;;5058080;28;20198;-84
2022/06/24 00:17:06;;;;;;;4.35;3.00;;;24.00;99.90;;;;;;5041526;28;20202;-84
2022/06/24 00:19:57;;;;;;;3.80;3.35;;;24.00;99.90;;;;;;5058377;28;20224;-84
2022/06/24 00:22:25;;;;;;;3.70;3.25;;;24.00;99.90;;;;;;5059290;28;20258;-84
2022/06/24 00:25:12;;;;;;;5.43;3.30;;;24.00;99.90;;;;;;5043805;28;20563;-84
2022/06/24 00:27:39;;;;;;;4.05;3.58;;;24.00;99.90;;;;;;5058666;28;20238;-84
2022/06/24 00:30:13;;;;;;;4.20;3.10;;;23.90;99.90;;;;;;5041707;28;20199;-84
2022/06/24 00:32:40;;;;;;;4.15;3.28;;;23.90;99.90;;;;;;5056738;28;20533;-84
2022/06/24 00:35:14;;;;;;;5.80;3.53;;;23.90;99.90;;;;;;5038541;28;20195;-83
2022/06/24 00:37:42;;;;;;;4.97;3.47;;;23.90;99.90;;;;;;5054851;28;20207;-83
2022/06/24 00:40:11;;;;;;;4.30;3.72;;;23.90;99.90;;;;;;5054838;28;20197;-83
2022/06/24 00:42:39;;;;;;;3.60;3.03;;;23.90;99.90;;;;;;5055234;28;20266;-83
2022/06/24 00:45:32;;;;;;;4.13;3.30;;;23.80;99.90;;;;;;5054693;28;20195;-80
2022/06/24 00:47:59;;;;;;;4.82;3.33;;;23.80;99.90;;;;;;5053990;28;20194;-82
2022/06/24 00:50:28;;;;;;;5.90;3.22;;;23.80;99.90;;;;;;5039293;28;20178;-81
2022/06/24 00:52:59;;;;;;;5.32;3.17;;;23.80;99.90;;;;;;5054220;28;20171;-81
2022/06/24 00:55:29;;;;;;;3.80;3.10;;;23.80;99.90;;;;;;5054419;28;20234;-81
2022/06/24 00:57:56;;;;;;;5.05;3.40;;;23.80;99.90;;;;;;5037748;28;20209;-82
2022/06/24 01:00:24;;;;;;;4.63;3.38;;;23.80;99.90;;;;;;5053317;28;20270;-79
2022/06/24 01:03:05;;;;;;;5.68;3.33;;;23.90;99.90;;;;;;5052802;28;20180;-79
2022/06/24 01:05:32;;;;;;;6.82;3.30;;;23.90;99.90;;;;;;5054006;28;20225;-81
2022/06/24 01:08:05;;;;;;;7.85;3.40;;;24.00;99.90;;;;;;5038548;28;20175;-81
2022/06/24 01:10:31;;;;;;;3.90;3.50;;;24.10;99.90;;;;;;5054381;28;20175;-80
2022/06/24 01:12:57;;;;;;;7.45;3.75;;;24.20;99.90;;;;;;5041164;28;20320;-80
2022/06/24 01:15:22;;;;;;;7.53;3.47;;;24.40;99.90;;;;;;5056334;28;20215;-81
2022/06/24 01:17:48;;;;;;;6.45;3.47;;;24.40;99.90;;;;;;5039140;28;20175;-81
2022/06/24 01:20:14;;;;;;;6.63;3.92;;;24.50;99.90;;;;;;5053878;28;20270;-80
2022/06/24 01:22:41;;;;;;;7.63;3.60;;;24.50;99.90;;;;;;5036964;28;20182;-80
2022/06/24 01:25:08;;;;;;;6.65;3.45;;;24.40;99.90;;;;;;5053553;28;20199;-80
2022/06/24 01:27:34;;;;;;;6.35;3.58;;;24.20;99.90;;;;;;5052986;28;20175;-80
2022/06/24 01:30:00;;;;;;;6.75;3.67;;;24.10;99.90;;;;;;5036358;28;20211;-80
2022/06/24 01:32:26;;;;;;;10.00;4.28;;;24.00;99.90;;;;;;5052910;28;20190;-80
2022/06/24 01:34:52;;;;;;;7.57;3.47;;;23.90;99.90;;;;;;5052853;28;20183;-81
2022/06/24 01:37:18;;;;;;;8.73;3.35;;;23.80;99.90;;;;;;5052885;28;20213;-80
2022/06/24 01:39:44;;;;;;;6.93;3.60;;;23.70;99.90;;;;;;5038020;28;20171;-82
2022/06/24 01:42:10;;;;;;;8.45;3.72;;;23.60;99.90;;;;;;5038550;28;20167;-81
2022/06/24 01:44:35;;;;;;;7.00;3.78;;;23.50;99.90;;;;;;5036758;28;20198;-81
2022/06/24 01:47:01;;;;;;;9.07;3.30;;;23.40;99.90;;;;;;5036837;28;20187;-81
2022/06/24 01:49:28;;;;;;;9.82;3.70;;;23.30;99.90;;;;;;5053696;28;20229;-81
2022/06/24 01:51:56;;;;;;;5.50;2.92;;;23.30;99.90;;;;;;5054887;28;20246;-83
2022/06/24 01:54:22;;;;;;;6.15;3.20;;;23.20;99.90;;;;;;5055759;28;20190;-83
2022/06/24 01:56:48;;;;;;;8.55;3.15;;;23.10;99.90;;;;;;5058373;28;20210;-83
2022/06/24 01:59:14;;;;;;;8.73;3.10;;;23.00;99.90;;;;;;5045014;28;20596;-83
2022/06/24 02:01:41;;;;;;;8.70;3.08;;;23.00;99.90;;;;;;5056725;28;20179;-84
2022/06/24 02:04:08;;;;;;;7.15;3.00;;;23.00;99.90;;;;;;5056800;28;20229;-83
2022/06/24 02:06:33;;;;;;;7.50;3.00;;;23.00;99.90;;;;;;5055380;28;20202;-83
2022/06/24 02:08:59;;;;;;;4.75;2.80;;;23.00;99.90;;;;;;5055368;28;20193;-83
2022/06/24 02:14:10;;;;;;;7.63;3.08;;;22.90;99.90;;;;;;5039648;28;20179;-83
2022/06/24 02:16:37;;;;;;;5.85;3.05;;;22.90;99.90;;;;;;5038399;28;20214;-83
2022/06/24 02:19:04;;;;;;;5.95;3.10;;;22.80;99.90;;;;;;5055108;28;20175;-83
2022/06/24 02:21:30;;;;;;;7.25;2.90;;;22.60;99.90;;;;;;5060786;28;20179;-83
2022/06/24 02:23:56;;;;;;;5.22;2.63;;;22.60;99.90;;;;;;5054116;28;20175;-83
2022/06/24 02:26:23;;;;;;;11.38;3.47;;;22.60;99.90;;;;;;5054872;28;20313;-83
2022/06/24 02:28:49;;;;;;;4.13;2.58;;;22.50;99.90;;;;;;5053818;28;20189;-83
2022/06/24 02:31:15;;;;;;;8.32;3.00;;;22.30;99.90;;;;;;5051962;28;20269;-83
2022/06/24 02:33:41;;;;;;;6.80;2.80;;;22.20;99.90;;;;;;5051814;28;20300;-84
2022/06/24 02:36:07;;;;;;;5.90;2.70;;;22.20;99.90;;;;;;5036630;28;20265;-83
2022/06/24 02:38:34;;;;;;;6.85;3.00;;;22.10;99.90;;;;;;5054297;28;20175;-84
2022/06/24 02:41:00;;;;;;;4.82;2.58;;;22.10;99.90;;;;;;5053169;28;20767;-84
2022/06/24 02:43:32;;;;;;;7.20;3.05;;;22.10;99.90;;;;;;5053531;28;20185;-84
2022/06/24 02:46:00;;;;;;;4.70;2.55;;;22.10;99.90;;;;;;5053418;28;20205;-85
2022/06/24 02:48:27;;;;;;;7.60;2.95;;;22.00;99.90;;;;;;5053690;28;20179;-84
2022/06/24 02:50:56;;;;;;;8.93;3.22;;;22.00;99.90;;;;;;5053321;28;20265;-83
2022/06/24 02:53:22;;;;;;;5.10;2.58;;;22.00;99.90;;;;;;5039110;28;20179;-83
2022/06/24 02:55:51;;;;;;;7.97;2.95;;;21.90;99.90;;;;;;5054168;28;20207;-84
2022/06/24 02:58:17;;;;;;;6.57;2.72;;;22.00;99.90;;;;;;5054242;28;20187;-83
2022/06/24 03:00:44;;;;;;;5.78;2.75;;;21.90;99.90;;;;;;5054625;28;20221;-83
2022/06/24 03:03:14;;;;;;;7.00;2.92;;;21.90;99.90;;;;;;5053017;28;20176;-85
2022/06/24 03:05:40;;;;;;;6.60;2.63;;;21.90;99.90;;;;;;5053139;28;20766;-82
2022/06/24 03:08:07;;;;;;;8.13;2.70;;;21.90;99.90;;;;;;5053022;28;20230;-83
2022/06/24 03:10:34;;;;;;;8.35;2.85;;;22.00;99.90;;;;;;5038070;28;20178;-83
2022/06/24 03:13:00;;;;;;;9.57;3.05;;;22.00;99.90;;;;;;5053334;28;20191;-84
2022/06/24 03:15:26;;;;;;;4.40;2.60;;;21.90;99.90;;;;;;5053724;28;20215;-83
2022/06/24 03:17:51;;;;;;;6.78;2.63;;;21.80;99.90;;;;;;5037740;28;20270;-84
2022/06/24 03:20:17;;;;;;;6.82;2.70;;;21.80;99.90;;;;;;5038539;28;20250;-84
2022/06/24 03:22:43;;;;;;;8.18;3.15;;;21.70;99.90;;;;;;5038462;28;20641;-84
2022/06/24 03:25:09;;;;;;;5.95;2.67;;;21.60;99.90;;;;;;5055875;28;20590;-84
2022/06/24 03:27:36;;;;;;;4.60;2.72;;;21.60;99.90;;;;;;5056492;28;20544;-84
2022/06/24 03:30:03;;;;;;;6.57;3.00;;;21.50;99.90;;;;;;5057315;28;20546;-83
2022/06/24 03:32:29;;;;;;;5.15;2.83;;;21.50;99.90;;;;;;5057171;28;20233;-84
2022/06/24 03:34:55;;;;;;;5.65;3.08;;;21.40;99.90;;;;;;5041581;28;20199;-83
2022/06/24 03:37:21;;;;;;;10.00;3.35;;;21.30;99.90;;;;;;5057208;28;20242;-83
2022/06/24 03:39:46;;;;;;;7.63;3.38;;;21.20;99.90;;;;;;5058073;28;20175;-84
2022/06/24 03:42:12;;;;;;;4.47;2.97;;;21.10;99.90;;;;;;5057664;28;20182;-85
2022/06/24 03:44:38;;;;;;;5.82;2.90;;;21.00;99.90;;;;;;5058404;28;20171;-84
2022/06/24 03:47:04;;;;;;;5.28;2.75;;;21.00;99.90;;;;;;5058201;28;20206;-85
2022/06/24 03:49:30;;;;;;;6.03;2.97;;;21.10;99.90;;;;;;5058491;28;20731;-84
2022/06/24 03:51:55;;;;;;;5.28;2.88;;;21.10;99.90;;;;;;5041455;28;20199;-84
2022/06/24 03:54:22;;;;;;;6.32;3.35;;;21.20;99.90;;;;;;5059172;28;20187;-84
2022/06/24 03:56:48;;;;;;;6.15;3.20;;;21.20;99.90;;;;;;5059808;28;20206;-84
2022/06/24 03:59:14;;;;;;;7.35;3.17;;;21.20;99.90;;;;;;5059391;28;20195;-84
2022/06/24 04:01:39;;;;;;;5.93;2.55;;;21.30;99.90;;;;;;5058984;28;20266;-84
2022/06/24 04:04:05;;;;;;;6.50;3.05;;;21.30;99.90;;;;;;5058829;28;20187;-84
2022/06/24 04:06:31;;;;;;;8.43;3.13;;;21.30;99.90;;;;;;5041423;28;20595;-84
2022/06/24 04:08:57;;;;;;;7.72;3.20;;;21.20;99.90;;;;;;5056261;28;20274;-83
2022/06/24 04:11:22;;;;;;;6.38;2.95;;;21.10;99.90;;;;;;5056241;28;20644;-84
2022/06/24 04:13:48;;;;;;;6.47;3.50;;;21.10;99.90;;;;;;5056646;28;20206;-83
2022/06/24 04:16:14;;;;;;;8.45;3.28;;;21.10;99.90;;;;;;5056423;28;20577;-83
2022/06/24 04:18:40;;;;;;;6.18;3.42;;;21.10;99.90;;;;;;5056173;28;20183;-83
2022/06/24 04:21:16;;;;;;;8.45;3.40;;;21.10;99.90;;;;;;5039167;28;20175;-83
2022/06/24 04:23:43;;;;;;;7.03;3.65;;;21.20;99.90;;;;;;5040144;28;20178;-83
2022/06/24 04:26:09;;;;;;;6.07;3.10;;;21.20;99.90;;;;;;5040184;28;20199;-83
2022/06/24 04:28:35;;;;;;;7.55;3.40;;;21.10;99.90;;;;;;5037749;28;20175;-83
2022/06/24 04:31:01;;;;;;;5.45;3.10;;;21.10;99.90;;;;;;5052814;28;20179;-83
2022/06/24 04:33:27;;;;;;;7.20;3.03;;;21.10;99.90;;;;;;5052925;28;20183;-84
2022/06/24 04:35:54;;;;;;;9.45;3.92;;;21.20;99.90;;;;;;5052642;28;20206;-83
2022/06/24 04:38:20;;;;;;;6.80;3.33;;;21.20;99.90;;;;;;5053020;28;20262;-84
2022/06/24 04:40:45;;;;;;;5.60;3.33;;;21.20;99.90;;;;;;5036988;28;20194;-85
2022/06/24 04:43:12;;;;;;;7.82;3.45;;;21.20;99.90;;;;;;5051891;28;20274;-85
2022/06/24 04:45:38;;;;;;;8.82;3.85;;;21.20;99.90;;;;;;5034948;28;20210;-85
2022/06/24 04:48:04;;;;;;;6.10;2.97;;;21.20;99.90;;;;;;5035310;28;20179;-86
2022/06/24 04:50:30;;;;;;;5.97;3.22;;;21.30;99.90;;;;;;5053107;28;20520;-85
2022/06/24 04:52:56;;;;;;;9.02;3.00;;;21.20;99.90;;;;;;5052771;28;20210;-86
2022/06/24 04:55:22;;;;;;;9.55;3.50;;;21.20;99.90;;;;;;5052742;28;20229;-85
2022/06/24 04:57:48;;;;;;;5.63;2.95;;;21.20;99.90;;;;;;5052411;28;20190;-85
2022/06/24 05:00:14;;;;;;;6.45;3.55;;;21.10;99.90;;;;;;5052641;28;20190;-85
2022/06/24 05:02:41;;;;;;;6.97;3.40;;;21.10;99.90;;;;;;5052421;28;20172;-85
2022/06/24 05:05:08;;;;;;;8.07;2.60;;;21.10;99.90;;;;;;5052809;28;20683;-85
2022/06/24 05:07:34;;;;;;;7.60;3.30;;;21.00;99.90;;;;;;5035998;28;20194;-86
2022/06/24 05:10:00;;;;;;;8.07;3.70;;;21.00;99.90;;;;;;5052888;28;20179;-86
2022/06/24 05:12:26;;;;;;;9.45;3.50;;;20.90;99.90;;;;;;5036057;28;20202;-85
2022/06/24 05:14:52;;;;;;;5.65;3.47;;;20.80;99.90;;;;;;5052175;28;20182;-85
2022/06/24 05:17:18;;;;;;;6.38;3.50;;;20.70;99.90;;;;;;5053156;28;20297;-83
2022/06/24 05:19:44;;;;;;;6.90;3.50;;;20.60;99.90;;;;;;5051966;28;20183;-84
2022/06/24 05:22:09;;;;;;;7.82;3.58;;;20.40;99.90;;;;;;5054628;28;20170;-84
2022/06/24 05:24:35;;;;;;;7.28;3.83;;;20.30;99.90;;;;;;5039137;28;20175;-84
2022/06/24 05:27:01;;;;;;;7.22;4.05;;;20.10;99.90;;;;;;5053907;28;20652;-84
2022/06/24 05:29:26;;;;;;;8.73;3.90;;;20.00;99.90;;;;;;5053690;28;20179;-84
2022/06/24 05:31:52;;;;;;;11.15;3.85;;;19.80;99.90;;;;;;5052677;28;20644;-84
2022/06/24 05:34:18;;;;;;;5.43;3.63;;;19.70;99.90;;;;;;5037581;28;20179;-84
2022/06/24 05:36:44;;;;;;;7.40;3.80;;;19.70;99.90;;;;;;5051976;28;20210;-83
2022/06/24 05:39:10;;;;;;;7.20;3.72;;;19.60;99.90;;;;;;5052394;28;20596;-83
2022/06/24 05:41:41;;;;;;;9.35;3.55;;;19.50;99.90;;;;;;5052449;28;20171;-83
2022/06/24 05:44:07;;;;;;;5.65;3.00;;;19.40;99.90;;;;;;5052722;28;20198;-83
2022/06/24 05:46:33;;;;;;;4.93;3.35;;;19.40;99.90;;;;;;5052012;28;20206;-83
2022/06/24 05:48:59;;;;;;;7.18;3.05;;;19.30;99.90;;;;;;5051739;28;20180;-83
2022/06/24 05:51:25;;;;;;;4.88;3.03;;;19.30;99.90;;;;;;5051542;28;20178;-83
2022/06/24 05:56:36;;;;;;;5.32;3.28;;;19.30;99.90;;;;;;5035839;28;20224;-83
2022/06/24 05:59:03;;;;;;;5.47;3.35;;;19.20;99.90;;;;;;5051191;28;20202;-83
2022/06/24 06:01:29;;;;;;;5.00;3.53;;;19.20;99.90;;;;;;5051132;28;20179;-83
2022/06/24 06:03:56;;;;;;;6.53;3.30;;;19.20;99.90;;;;;;5051053;28;20206;-83
2022/06/24 06:06:23;;;;;;;8.20;3.45;;;19.20;99.90;;;;;;5051475;28;20203;-83
2022/06/24 06:08:49;;;;;;;4.07;3.10;;;19.20;99.90;;;;;;5052170;28;20639;-83
2022/06/24 06:11:23;;;;;;;3.75;2.75;;;19.20;99.90;;;;;;5051446;28;20183;-83
2022/06/24 06:13:52;;;;;;;6.28;3.10;;;19.10;99.90;;;;;;5035718;28;20186;-83
2022/06/24 06:16:18;;;;;;;6.88;3.30;;;19.10;99.90;;;;;;5050800;28;20584;-83
2022/06/24 06:18:44;;;;;;;7.55;3.53;;;19.20;99.90;;;;;;5050828;28;20201;-83
2022/06/24 06:21:11;;;;;;;6.68;3.08;;;19.10;99.90;;;;;;5051737;28;20182;-83
2022/06/24 06:23:39;;;;;;;16.00;3.75;;;18.90;99.90;;;;;;5053886;28;20265;-82
2022/06/24 06:26:06;;;;;;;10.00;3.70;;;18.80;99.90;;;;;;5052383;28;20195;-81
2022/06/24 06:28:33;;;;;;;7.72;3.35;;;18.90;99.90;;;;;;5035075;28;20195;-82
2022/06/24 06:30:59;;;;;;;7.68;3.10;;;18.90;99.90;;;;;;5050916;28;20613;-83
2022/06/24 06:33:25;;;;;;;6.03;3.10;;;19.10;99.90;;;;;;5050984;28;20178;-83
2022/06/24 06:35:51;;;;;;;4.78;2.80;;;19.10;99.90;;;;;;5050988;28;20213;-81
2022/06/24 06:38:17;;;;;;;5.10;3.00;;;19.20;99.90;;;;;;5051230;28;20262;-81
2022/06/24 06:40:44;;;;;;;3.45;2.58;;;19.30;99.90;;;;;;5051533;28;20267;-82
2022/06/24 06:43:10;;;;;;;5.13;3.00;;;19.30;99.90;;;;;;5051668;28;20229;-82
2022/06/24 06:45:38;;;;;;;3.72;2.90;;;19.50;99.90;;;;;;5051952;28;20203;-83
2022/06/24 06:48:05;;;;;;;4.50;2.72;;;19.60;99.90;;;;;;5051721;28;20179;-83
2022/06/24 06:50:31;;;;;;;4.90;2.50;;;19.60;99.90;;;;;;5052295;28;20189;-83
2022/06/24 06:52:57;;;;;;;4.40;2.70;;;19.70;99.90;;;;;;5053694;28;20175;-82
2022/06/24 06:55:23;;;;;;;6.78;2.85;;;19.70;99.90;;;;;;5036654;28;20559;-82
2022/06/24 06:57:50;;;;;;;5.88;2.85;;;19.80;99.90;;;;;;5053825;28;20222;-82
2022/06/24 07:00:17;;;;;;;5.20;2.70;;;19.90;99.90;;;;;;5043492;28;20173;-83
2022/06/24 07:02:43;;;;;;;4.97;2.40;;;20.00;99.90;;;;;;5057873;28;20739;-81
2022/06/24 07:05:08;;;;;;;6.95;3.00;;;20.10;99.90;;;;;;5056115;28;20226;-81
2022/06/24 07:07:34;;;;;;;6.35;2.67;;;20.10;99.90;;;;;;5039971;28;20184;-82
2022/06/24 07:10:00;;;;;;;5.78;2.75;;;20.20;99.90;;;;;;5055457;28;20182;-81
2022/06/24 07:12:27;;;;;;;4.40;2.25;;;20.30;99.90;;;;;;5056118;28;20543;-81
2022/06/24 07:14:53;;;;;;;4.30;2.58;;;20.30;99.90;;;;;;5055416;28;20184;-81
2022/06/24 07:17:19;;;;;;;4.47;2.45;;;20.30;99.90;;;;;;5039753;28;20195;-81
2022/06/24 07:19:46;;;;;;;3.22;2.38;;;20.40;99.90;;;;;;5041934;28;20175;-82
2022/06/24 07:22:12;;;;;;;3.58;2.53;;;20.50;99.90;;;;;;5055236;28;20202;-83
2022/06/24 07:24:38;;;;;;;5.03;2.20;;;20.60;99.90;;;;;;5039856;28;20175;-82
2022/06/24 07:27:06;;;;;;;6.03;2.60;;;20.70;99.90;;;;;;5054337;28;20215;-82
2022/06/24 07:29:35;;;;;;;5.25;2.40;;;20.80;99.90;;;;;;5054878;28;20539;-82
2022/06/24 07:32:07;;;;;;;5.97;2.38;;;20.90;99.90;;;;;;5055044;28;20205;-82
2022/06/24 07:34:35;;;;;;;3.00;1.92;;;21.00;99.90;;;;;;5055336;28;20175;-82
2022/06/24 07:37:03;;;;;;;4.45;2.20;;;21.10;99.90;;;;;;5039909;28;20256;-82
2022/06/24 07:39:29;;;;;;;4.25;2.38;;;21.10;99.90;;;;;;5054780;28;20175;-82
2022/06/24 07:41:56;;;;;;;6.10;2.50;;;21.10;99.90;;;;;;5055274;28;20186;-84
2022/06/24 07:44:22;;;;;;;7.47;3.10;;;21.10;99.90;;;;;;5043935;28;20641;-85
2022/06/24 07:46:49;;;;;;;9.10;2.50;;;21.10;99.90;;;;;;5058828;28;20583;-84
2022/06/24 07:49:15;;;;;;;4.28;2.20;;;21.00;99.90;;;;;;5058883;28;20648;-85
2022/06/24 07:51:41;;;;;;;4.10;1.98;;;21.10;99.90;;;;;;5056118;28;20168;-84
2022/06/24 07:54:09;;;;;;;4.45;2.55;;;21.20;99.90;;;;;;5040152;28;20182;-83
2022/06/24 07:59:20;;;;;;;5.82;2.20;;;21.30;99.90;;;;;;5040178;28;20709;-83
2022/06/24 08:01:47;;;;;;;6.20;2.10;;;21.20;99.90;;;;;;5038234;28;20175;-83
2022/06/24 08:04:15;;;;;;;4.28;2.35;;;21.30;99.90;;;;;;5039929;28;20209;-83
2022/06/24 08:06:46;;;;;;;5.00;2.53;;;21.30;99.90;;;;;;5038056;28;20199;-83
2022/06/24 08:09:13;;;;;;;3.28;2.50;;;21.30;99.90;;;;;;5053722;28;20219;-83
2022/06/24 08:11:39;;;;;;;6.18;2.63;;;21.40;99.90;;;;;;5055053;28;20183;-83
2022/06/24 08:14:05;;;;;;;5.68;2.28;;;21.40;99.90;;;;;;5037581;28;20693;-83
2022/06/24 08:16:31;;;;;;;3.67;2.20;;;21.50;99.90;;;;;;5055114;28;20211;-83
2022/06/24 08:18:56;;;;;;;5.63;2.38;;;21.60;99.90;;;;;;5038787;28;20207;-83
2022/06/24 08:21:22;;;;;;;5.75;2.28;;;21.70;99.90;;;;;;5056517;28;20199;-83
2022/06/24 08:23:49;;;;;;;3.67;2.25;;;21.60;99.90;;;;;;5055972;28;20175;-83
2022/06/24 08:26:16;;;;;;;5.43;2.40;;;21.60;99.90;;;;;;5054169;28;20215;-83
2022/06/24 08:28:42;;;;;;;6.05;2.45;;;21.60;99.90;;;;;;5055015;28;20338;-84
2022/06/24 08:31:08;;;;;;;4.10;2.25;;;21.50;99.90;;;;;;5054758;28;20171;-84
2022/06/24 08:33:34;;;;;;;5.55;2.75;;;21.60;99.90;;;;;;5053787;28;20227;-84
2022/06/24 08:36:00;;;;;;;7.07;2.53;;;21.80;99.90;;;;;;5052683;28;20207;-84
2022/06/24 08:38:26;;;;;;;7.07;2.88;;;21.90;99.90;;;;;;5052902;28;20185;-84
2022/06/24 08:40:54;;;;;;;4.20;2.50;;;22.00;99.90;;;;;;5052602;28;20183;-84
2022/06/24 08:43:22;;;;;;;5.85;2.40;;;22.20;99.90;;;;;;5053093;28;20229;-83
2022/06/24 08:45:49;;;;;;;5.32;2.47;;;22.30;99.90;;;;;;5052707;28;20230;-83
2022/06/24 08:48:16;;;;;;;8.27;2.65;;;22.20;99.90;;;;;;5052865;28;20253;-84
2022/06/24 08:50:42;;;;;;;8.32;2.70;;;22.40;99.90;;;;;;5054643;28;20190;-84
2022/06/24 08:53:11;;;;;;;6.63;2.50;;;22.40;99.90;;;;;;5052923;28;20175;-84
2022/06/24 08:55:41;;;;;;;6.28;2.75;;;22.50;99.90;;;;;;5055810;28;20261;-83
2022/06/24 08:58:12;;;;;;;4.63;2.67;;;22.40;99.90;;;;;;5055010;28;20218;-83
2022/06/24 09:00:39;;;;;;;4.55;2.60;;;22.30;99.90;;;;;;5054458;28;20273;-84
2022/06/24 09:03:06;;;;;;;3.25;2.45;;;22.40;99.90;;;;;;5043071;28;20207;-83
2022/06/24 09:05:32;;;;;;;8.60;2.80;;;22.20;99.90;;;;;;5055547;28;20226;-83
2022/06/24 09:08:18;;;;;;;6.18;2.70;;;22.20;99.90;;;;;;5038612;28;20178;-83
2022/06/24 09:13:55;;;;;;;5.57;2.47;;;22.30;99.90;;;;;;5040556;28;20186;-83
2022/06/24 09:16:25;;;;;;;4.30;2.58;;;22.40;99.90;;;;;;5040797;28;20295;-83
2022/06/24 09:19:00;;;;;;;6.03;2.80;;;22.50;99.90;;;;;;5055849;28;20179;-83
2022/06/24 09:21:39;;;;;;;3.38;2.45;;;22.60;99.90;;;;;;5038866;28;20175;-83
2022/06/24 09:24:06;;;;;;;6.35;2.47;;;22.60;99.90;;;;;;5056783;28;20167;-84
2022/06/24 09:26:36;;;;;;;6.88;2.63;;;22.60;99.90;;;;;;5055902;28;20199;-83
2022/06/24 09:29:05;;;;;;;4.90;2.47;;;22.60;99.90;;;;;;5055588;28;20178;-83
2022/06/24 09:31:34;;;;;;;7.53;2.88;;;22.60;99.90;;;;;;5038948;28;20156;-83
2022/06/24 09:34:12;;;;;;;4.57;2.55;;;22.70;99.90;;;;;;5056092;28;20525;-82
2022/06/24 09:36:40;;;;;;;5.65;2.45;;;22.60;99.90;;;;;;5041148;28;20202;-83
2022/06/24 09:39:09;;;;;;;4.93;2.47;;;22.60;99.90;;;;;;5039289;28;20171;-82
2022/06/24 09:41:46;;;;;;;5.03;2.90;;;22.60;99.90;;;;;;5038701;28;20185;-82
2022/06/24 09:44:13;;;;;;;3.95;2.05;;;22.50;99.90;;;;;;5039110;28;20266;-82
2022/06/24 09:46:39;;;;;;;3.00;2.30;;;22.40;99.90;;;;;;5041369;28;20248;-81
2022/06/24 09:49:14;;;;;;;5.15;2.53;;;22.40;99.90;;;;;;5042153;28;20210;-82
2022/06/24 09:51:43;;;;;;;5.38;2.70;;;22.40;99.90;;;;;;5041568;28;20334;-82
2022/06/24 09:54:09;;;;;;;10.45;3.28;;;22.30;99.90;;;;;;5058409;28;20183;-82
2022/06/24 09:56:38;;;;;;;6.32;2.83;;;22.30;99.90;;;;;;5056145;28;20211;-81
2022/06/24 10:01:49;;;;;;;5.13;2.50;;;22.20;99.90;;;;;;5038888;28;20217;-82
2022/06/24 10:04:20;;;;;;;9.27;3.33;;;22.20;99.90;;;;;;5037554;28;20658;-81
2022/06/24 10:06:49;;;;;;;6.82;4.32;;;22.10;99.90;;;;;;5038412;28;20574;-81
2022/06/24 10:09:22;;;;;;;16.77;7.10;;;21.60;99.90;;;;;;5039246;28;20181;-81
2022/06/24 10:11:49;;;;;;;9.05;4.70;;;21.40;99.90;;;;;;5040569;28;20221;-82
2022/06/24 10:14:15;;;;;;;7.85;4.18;;;21.10;99.90;;;;;;5056566;28;20697;-82
2022/06/24 10:16:42;;;;;;;6.95;4.40;;;21.00;99.90;;;;;;5040746;28;20301;-82
2022/06/24 10:19:10;;;;;;;8.65;4.88;;;20.80;99.90;;;;;;5043663;28;20167;-83
2022/06/24 10:21:37;;;;;;;4.30;3.28;;;20.80;99.90;;;;;;5041930;28;20159;-85
2022/06/24 10:24:14;;;;;;;3.83;3.13;;;20.60;99.90;;;;;;5057974;28;20630;-84
2022/06/24 10:26:42;;;;;;;4.72;3.40;;;20.50;99.90;;;;;;5044481;28;20277;-85
2022/06/24 10:29:14;;;;;;;4.30;3.67;;;20.50;99.90;;;;;;5055911;28;20261;-84
2022/06/24 10:31:49;;;;;;;6.63;3.85;;;20.50;99.90;;;;;;5057136;28;20182;-85
2022/06/24 10:34:30;;;;;;;5.53;4.00;;;20.50;99.90;;;;;;5060473;28;20194;-84
2022/06/24 10:37:00;;;;;;;8.00;4.35;;;20.30;99.90;;;;;;5042588;28;20237;-84
2022/06/24 10:39:28;;;;;;;5.65;4.43;;;20.20;99.90;;;;;;5058422;28;20171;-84
2022/06/24 10:42:06;;;;;;;5.72;3.63;;;20.20;99.90;;;;;;5058155;28;20186;-84
2022/06/24 10:44:34;;;;;;;6.78;3.78;;;20.30;99.90;;;;;;5060572;28;20178;-84
2022/06/24 10:47:09;;;;;;;4.18;3.75;;;20.30;99.90;;;;;;5043748;28;20198;-84
2022/06/24 10:49:51;;;;;;;6.20;3.67;;;20.30;99.90;;;;;;5058308;28;20206;-84
2022/06/24 10:52:39;;;;;;;3.47;3.17;;;20.10;99.90;;;;;;5059417;28;20659;-84
2022/06/24 10:55:17;;;;;;;5.97;3.72;;;20.00;99.90;;;;;;5059380;28;20278;-85
2022/06/24 10:57:54;;;;;;;6.57;4.05;;;20.00;99.90;;;;;;5058893;28;20198;-84
2022/06/24 11:00:29;;;;;;;6.40;4.07;;;20.10;99.90;;;;;;5040895;28;20242;-84
2022/06/24 11:03:12;;;;;;;5.85;4.10;;;20.20;99.90;;;;;;5058984;28;20175;-84
2022/06/24 11:05:40;;;;;;;4.90;3.80;;;20.40;99.90;;;;;;5060133;28;20253;-84
2022/06/24 11:08:12;;;;;;;4.13;3.42;;;20.60;99.90;;;;;;5058516;28;20183;-80
2022/06/24 11:10:39;;;;;;;5.90;3.45;;;20.70;99.90;;;;;;5059272;28;20183;-80
2022/06/24 11:13:05;;;;;;;4.63;3.63;;;21.00;99.90;;;;;;5043955;28;20160;-80
2022/06/24 11:15:45;;;;;;;3.28;2.97;;;21.30;99.90;;;;;;5059503;28;20206;-81
2022/06/24 11:18:20;;;;;;;3.92;3.15;;;21.50;99.90;;;;;;5061287;28;20217;-84
2022/06/24 11:20:59;;;;;;;3.97;3.17;;;21.60;99.90;;;;;;5039922;28;20519;-84
2022/06/24 11:23:27;;;;;;;4.65;3.00;;;21.60;99.90;;;;;;5041676;28;20156;-83
2022/06/24 11:26:01;;;;;;;3.63;2.47;;;21.60;99.90;;;;;;5041299;28;20221;-84
2022/06/24 11:28:38;;;;;;;3.60;2.60;;;21.60;99.90;;;;;;5056791;28;20216;-84
2022/06/24 11:31:19;;;;;;;2.63;2.42;;;21.70;99.90;;;;;;5058415;28;20193;-81
2022/06/24 11:33:47;;;;;;;5.95;3.45;;;21.90;99.90;;;;;;5045645;28;20179;-80
2022/06/24 11:36:19;;;;;;;3.63;2.90;;;21.70;99.90;;;;;;5062574;28;20214;-80
2022/06/24 11:39:01;;;;;;;3.75;3.10;;;21.70;99.90;;;;;;5061474;28;20175;-80
2022/06/24 11:41:35;;;;;;;5.50;2.95;;;21.80;99.90;;;;;;5059998;28;20163;-81
2022/06/24 11:44:01;;;;;;;3.85;2.95;;;21.80;99.90;;;;;;5058335;28;20179;-81
2022/06/24 11:46:27;;;;;;;3.55;3.25;;;21.90;99.90;;;;;;5057842;28;20234;-85
2022/06/24 11:49:12;;;;;;;4.38;3.67;;;21.90;99.90;;;;;;5060902;28;20232;-85
2022/06/24 11:51:40;;;;;;;8.52;3.55;;;22.00;99.90;;;;;;5057941;28;20175;-79
2022/06/24 11:54:07;;;;;;;4.78;3.55;;;22.00;99.90;;;;;;5058954;28;20187;-79
2022/06/24 11:56:39;;;;;;;6.72;4.20;;;22.10;99.90;;;;;;5043181;28;20659;-79
2022/06/24 11:59:06;;;;;;;5.38;4.20;;;22.10;99.90;;;;;;5057496;28;20187;-80
2022/06/24 12:01:33;;;;;;;8.32;4.72;;;22.20;99.90;;;;;;5059770;28;20227;-79
2022/06/24 12:04:07;;;;;;;4.90;4.35;;;22.00;99.90;;;;;;5063429;28;20202;-79
2022/06/24 12:06:34;;;;;;;7.85;4.43;;;21.90;99.90;;;;;;5053918;28;20206;-79
2022/06/24 12:09:00;;;;;;;8.80;4.88;;;22.10;99.90;;;;;;5065895;28;20191;-79
2022/06/24 12:11:26;;;;;;;6.97;4.55;;;22.20;99.90;;;;;;5061610;28;20220;-79
2022/06/24 12:13:57;;;;;;;6.53;4.75;;;22.50;99.90;;;;;;5060375;28;20183;-79
2022/06/24 12:16:58;;;;;;;6.32;4.63;;;22.90;99.90;;;;;;5059796;28;20245;-80
2022/06/24 12:19:25;;;;;;;9.32;4.32;;;23.60;99.90;;;;;;5040067;28;20194;-80
2022/06/24 12:22:00;;;;;;;8.55;4.88;;;23.80;99.90;;;;;;5060191;28;20172;-79
2022/06/24 12:24:26;;;;;;;6.13;4.32;;;24.00;99.90;;;;;;5044695;28;20166;-79
2022/06/24 12:26:56;;;;;;;7.22;4.25;;;24.30;99.90;;;;;;5046452;28;20227;-79
2022/06/24 12:29:27;;;;;;;4.95;4.05;;;24.20;99.90;;;;;;5046637;28;20186;-79
2022/06/24 12:31:54;;;;;;;4.55;3.50;;;24.20;99.90;;;;;;5061241;28;20187;-79
2022/06/24 12:34:28;;;;;;;5.30;4.22;;;24.00;99.90;;;;;;5061284;28;20183;-79
2022/06/24 12:37:01;;;;;;;5.43;3.85;;;24.20;99.90;;;;;;5061097;28;20214;-80
2022/06/24 12:39:39;;;;;;;6.10;4.18;;;24.20;99.90;;;;;;5059957;28;20167;-80
2022/06/24 12:42:06;;;;;;;4.00;3.63;;;24.30;99.90;;;;;;5043871;28;20169;-80
2022/06/24 12:44:53;;;;;;;5.57;4.25;;;24.40;99.90;;;;;;5060286;28;20176;-80
2022/06/24 12:53:00;;;;;;;4.72;3.28;;;24.80;99.90;;;;;;5046583;28;20158;-80
2022/06/24 12:55:27;;;;;;;4.85;3.22;;;24.90;99.90;;;;;;5059901;28;20225;-80
2022/06/24 12:57:53;;;;;;;7.25;3.55;;;25.00;99.90;;;;;;5044738;28;20223;-80
2022/06/24 13:00:19;;;;;;;5.50;3.70;;;25.50;99.90;;;;;;5060326;28;20175;-80
2022/06/24 13:02:47;;;;;;;4.20;3.22;;;25.90;99.90;;;;;;5061059;28;20172;-80
2022/06/24 13:05:14;;;;;;;3.30;3.00;;;26.10;99.90;;;;;;5045017;28;20578;-80
2022/06/24 13:07:40;;;;;;;3.70;3.13;;;26.00;99.90;;;;;;5044512;28;20179;-80
2022/06/24 13:10:08;;;;;;;3.83;2.92;;;26.20;99.90;;;;;;5058625;28;20187;-80
2022/06/24 13:12:35;;;;;;;3.90;2.80;;;26.40;99.90;;;;;;5041514;28;20230;-80